PWSweather.com
Personal Weather Stations
Station Observations
KMAMEDFI2
Medfield, MA 02052

Medfield, MA 02052

Lat: 42.1900822, Lon: -71.3296889

Elevation: 138

Station Type: Rainwise WS MK-III

http://www.medfieldweather.com

High Low Average
Temperature 27.8°F-2.3°C 13.5°F-10.3°C 22.0°F-5.6°C
Dew Point 26.3°F-3.2°C 11.8°F-11.2°C 20.3°F-6.5°C
Winds 18.4 mph 29.6 kmh Calm Calm 6.0 mph SW9.7 kmh SW
Wind Gusts 26.5 mph42.6 kmh -- 6.0 mph9.7 kmh
Humidity 94% 88% 93%
Pressure 31.10 in1053.2 mb 29.81 in1009.5 mb -
Precipitation 0.00 in0.0 mm - -
Hour Temp Dew Point Humidity Winds Wind Gusts Pressure Precip Precip Rate Daily Precip Total
12:00 AM 13.5°F-10.3°C 11.8°F-11.2°C 93% Calm Calm -- 31.10 in1053.2 mb - 0.00 in0.0 mm 0.00 in0.0 mm
12:10 AM 14.2°F-9.9°C 12.5°F-10.8°C 93% Calm Calm -- 31.10 in1053.2 mb - 0.00 in0.0 mm 0.00 in0.0 mm
12:20 AM 14.8°F-9.6°C 13.2°F-10.4°C 93% Calm Calm -- 31.09 in1052.8 mb - 0.00 in0.0 mm 0.00 in0.0 mm
12:30 AM 15.3°F-9.3°C 13.6°F-10.2°C 93% Calm Calm -- 31.08 in1052.5 mb - 0.00 in0.0 mm 0.00 in0.0 mm
12:40 AM 15.6°F-9.1°C 13.9°F-10.1°C 93% Calm Calm -- 31.07 in1052.2 mb - 0.00 in0.0 mm 0.00 in0.0 mm
12:50 AM 15.9°F-8.9°C 14.2°F-9.9°C 93% 1.2 mph S1.9 kmh S 1.2 mph1.9 kmh 31.07 in1052.2 mb - 0.00 in0.0 mm 0.00 in0.0 mm
01:00 AM 15.9°F-8.9°C 14.2°F-9.9°C 93% Calm Calm -- 31.07 in1052.2 mb - 0.00 in0.0 mm 0.00 in0.0 mm
01:10 AM 16.1°F-8.8°C 14.4°F-9.8°C 93% Calm Calm -- 31.07 in1052.2 mb - 0.00 in0.0 mm 0.00 in0.0 mm
01:20 AM 16.5°F-8.6°C 14.8°F-9.6°C 93% Calm Calm -- 31.05 in1051.5 mb - 0.00 in0.0 mm 0.00 in0.0 mm
01:30 AM 16.9°F-8.4°C 15.2°F-9.3°C 93% Calm Calm -- 31.03 in1050.8 mb - 0.00 in0.0 mm 0.00 in0.0 mm
01:40 AM 17.4°F-8.1°C 15.7°F-9.1°C 93% Calm Calm -- 31.03 in1050.8 mb - 0.00 in0.0 mm 0.00 in0.0 mm
01:50 AM 17.8°F-7.9°C 16.1°F-8.8°C 93% 2.3 mph W3.7 kmh W 2.3 mph3.7 kmh 31.04 in1051.1 mb - 0.00 in0.0 mm 0.00 in0.0 mm
02:00 AM 18.0°F-7.8°C 16.3°F-8.7°C 93% 3.5 mph WSW5.6 kmh WSW 2.3 mph3.7 kmh 31.03 in1050.8 mb - 0.00 in0.0 mm 0.00 in0.0 mm
02:10 AM 18.1°F-7.7°C 16.4°F-8.7°C 93% Calm Calm -- 31.02 in1050.5 mb - 0.00 in0.0 mm 0.00 in0.0 mm
02:20 AM 18.3°F-7.6°C 16.6°F-8.6°C 93% Calm Calm -- 31.03 in1050.8 mb - 0.00 in0.0 mm 0.00 in0.0 mm
02:30 AM 18.6°F-7.4°C 16.9°F-8.4°C 93% Calm Calm -- 31.03 in1050.8 mb - 0.00 in0.0 mm 0.00 in0.0 mm
02:40 AM 18.8°F-7.3°C 17.1°F-8.3°C 93% Calm Calm 1.2 mph1.9 kmh 31.02 in1050.5 mb - 0.00 in0.0 mm 0.00 in0.0 mm
02:50 AM 19.1°F-7.2°C 17.4°F-8.1°C 93% 1.2 mph WSW1.9 kmh WSW 2.3 mph3.7 kmh 31.02 in1050.5 mb - 0.00 in0.0 mm 0.00 in0.0 mm
03:00 AM 19.3°F-7.1°C 17.6°F-8.0°C 93% Calm Calm -- 31.00 in1049.8 mb - 0.00 in0.0 mm 0.00 in0.0 mm
03:10 AM 19.4°F-7.0°C 17.7°F-7.9°C 93% 1.2 mph SSW1.9 kmh SSW 2.3 mph3.7 kmh 30.98 in1049.1 mb - 0.00 in0.0 mm 0.00 in0.0 mm
03:20 AM 19.5°F-6.9°C 17.8°F-7.9°C 93% 3.5 mph NW5.6 kmh NW 2.3 mph3.7 kmh 30.98 in1049.1 mb - 0.00 in0.0 mm 0.00 in0.0 mm
03:30 AM 19.4°F-7.0°C 17.7°F-7.9°C 93% 2.3 mph NW3.7 kmh NW 2.3 mph3.7 kmh 30.96 in1048.4 mb - 0.00 in0.0 mm 0.00 in0.0 mm
03:40 AM 19.4°F-7.0°C 17.7°F-7.9°C 93% 2.3 mph NW3.7 kmh NW 2.3 mph3.7 kmh 30.95 in1048.1 mb - 0.00 in0.0 mm 0.00 in0.0 mm
03:50 AM 19.6°F-6.9°C 17.9°F-7.8°C 93% 2.3 mph S3.7 kmh S 2.3 mph3.7 kmh 30.93 in1047.4 mb - 0.00 in0.0 mm 0.00 in0.0 mm
04:00 AM 19.9°F-6.7°C 18.2°F-7.7°C 93% 1.2 mph NW1.9 kmh NW 1.2 mph1.9 kmh 30.92 in1047.1 mb - 0.00 in0.0 mm 0.00 in0.0 mm
04:10 AM 20.0°F-6.7°C 18.3°F-7.6°C 93% 1.2 mph S1.9 kmh S 1.2 mph1.9 kmh 30.90 in1046.4 mb - 0.00 in0.0 mm 0.00 in0.0 mm
04:20 AM 20.2°F-6.6°C 18.5°F-7.5°C 93% Calm Calm -- 30.90 in1046.4 mb - 0.00 in0.0 mm 0.00 in0.0 mm
04:30 AM 20.3°F-6.5°C 18.3°F-7.6°C 92% 4.6 mph NNE7.4 kmh NNE 8.1 mph13.0 kmh 30.89 in1046.1 mb - 0.00 in0.0 mm 0.00 in0.0 mm
04:40 AM 20.2°F-6.6°C 17.2°F-8.2°C 88% 2.3 mph NW3.7 kmh NW 8.1 mph13.0 kmh 30.88 in1045.7 mb - 0.00 in0.0 mm 0.00 in0.0 mm
04:50 AM 20.1°F-6.6°C 17.4°F-8.1°C 89% 2.3 mph E3.7 kmh E 2.3 mph3.7 kmh 30.88 in1045.7 mb - 0.00 in0.0 mm 0.00 in0.0 mm
05:00 AM 20.1°F-6.6°C 17.4°F-8.1°C 89% 1.2 mph NE1.9 kmh NE 1.2 mph1.9 kmh 30.86 in1045.0 mb - 0.00 in0.0 mm 0.00 in0.0 mm
05:10 AM 19.9°F-6.7°C 18.0°F-7.8°C 92% 3.5 mph NNW5.6 kmh NNW 5.8 mph9.3 kmh 30.86 in1045.0 mb - 0.00 in0.0 mm 0.00 in0.0 mm
05:20 AM 19.8°F-6.8°C 17.6°F-8.0°C 91% 3.5 mph WNW5.6 kmh WNW 2.3 mph3.7 kmh 30.83 in1044.0 mb - 0.00 in0.0 mm 0.00 in0.0 mm
05:30 AM 19.7°F-6.8°C 18.0°F-7.8°C 93% 2.3 mph N3.7 kmh N 2.3 mph3.7 kmh 30.82 in1043.7 mb - 0.00 in0.0 mm 0.00 in0.0 mm
05:40 AM 19.7°F-6.8°C 18.0°F-7.8°C 93% 3.5 mph NNE5.6 kmh NNE 2.3 mph3.7 kmh 30.81 in1043.3 mb - 0.00 in0.0 mm 0.00 in0.0 mm
05:50 AM 19.7°F-6.8°C 17.8°F-7.9°C 92% 3.5 mph N5.6 kmh N 2.3 mph3.7 kmh 30.80 in1043.0 mb - 0.00 in0.0 mm 0.00 in0.0 mm
06:00 AM 19.8°F-6.8°C 17.9°F-7.8°C 92% 1.2 mph ESE1.9 kmh ESE 2.3 mph3.7 kmh 30.79 in1042.7 mb - 0.00 in0.0 mm 0.00 in0.0 mm
06:10 AM 19.9°F-6.7°C 17.4°F-8.1°C 90% 3.5 mph NW5.6 kmh NW 2.3 mph3.7 kmh 30.77 in1042.0 mb - 0.00 in0.0 mm 0.00 in0.0 mm
06:20 AM 20.0°F-6.7°C 17.5°F-8.1°C 90% 3.5 mph NW5.6 kmh NW 9.2 mph14.8 kmh 30.76 in1041.7 mb - 0.00 in0.0 mm 0.00 in0.0 mm
06:30 AM 20.2°F-6.6°C 17.7°F-7.9°C 90% 5.8 mph E9.3 kmh E 3.5 mph5.6 kmh 30.74 in1041.0 mb - 0.00 in0.0 mm 0.00 in0.0 mm
06:40 AM 20.4°F-6.4°C 18.7°F-7.4°C 93% 1.2 mph N1.9 kmh N 2.3 mph3.7 kmh 30.74 in1041.0 mb - 0.00 in0.0 mm 0.00 in0.0 mm
06:50 AM 20.6°F-6.3°C 18.9°F-7.3°C 93% 3.5 mph SSW5.6 kmh SSW 2.3 mph3.7 kmh 30.72 in1040.3 mb - 0.00 in0.0 mm 0.00 in0.0 mm
07:00 AM 20.6°F-6.3°C 18.9°F-7.3°C 93% 2.3 mph NW3.7 kmh NW 3.5 mph5.6 kmh 30.71 in1040.0 mb - 0.00 in0.0 mm 0.00 in0.0 mm
07:10 AM 20.4°F-6.4°C 18.7°F-7.4°C 93% 1.2 mph SW1.9 kmh SW 1.2 mph1.9 kmh 30.70 in1039.6 mb - 0.00 in0.0 mm 0.00 in0.0 mm
07:20 AM 20.6°F-6.3°C 18.9°F-7.3°C 93% 3.5 mph N5.6 kmh N 2.3 mph3.7 kmh 30.68 in1038.9 mb - 0.00 in0.0 mm 0.00 in0.0 mm
07:30 AM 20.7°F-6.3°C 19.0°F-7.2°C 93% 5.8 mph WNW9.3 kmh WNW 5.8 mph9.3 kmh 30.67 in1038.6 mb - 0.00 in0.0 mm 0.00 in0.0 mm
07:40 AM 20.6°F-6.3°C 18.9°F-7.3°C 93% 3.5 mph NW5.6 kmh NW 2.3 mph3.7 kmh 30.65 in1037.9 mb - 0.00 in0.0 mm 0.00 in0.0 mm
07:50 AM 20.5°F-6.4°C 18.8°F-7.3°C 93% 2.3 mph NE3.7 kmh NE 5.8 mph9.3 kmh 30.64 in1037.6 mb - 0.00 in0.0 mm 0.00 in0.0 mm
08:00 AM 20.7°F-6.3°C 19.0°F-7.2°C 93% 3.5 mph WNW5.6 kmh WNW 2.3 mph3.7 kmh 30.62 in1036.9 mb - 0.00 in0.0 mm 0.00 in0.0 mm
08:10 AM 21.1°F-6.1°C 19.4°F-7.0°C 93% 5.8 mph NW9.3 kmh NW 8.1 mph13.0 kmh 30.61 in1036.6 mb - 0.00 in0.0 mm 0.00 in0.0 mm
08:20 AM 21.3°F-5.9°C 19.6°F-6.9°C 93% 5.8 mph N9.3 kmh N 5.8 mph9.3 kmh 30.61 in1036.6 mb - 0.00 in0.0 mm 0.00 in0.0 mm
08:30 AM 21.5°F-5.8°C 19.8°F-6.8°C 93% 3.5 mph E5.6 kmh E 2.3 mph3.7 kmh 30.60 in1036.2 mb - 0.00 in0.0 mm 0.00 in0.0 mm
08:40 AM 21.6°F-5.8°C 19.9°F-6.7°C 93% 2.3 mph WNW3.7 kmh WNW 1.2 mph1.9 kmh 30.58 in1035.6 mb - 0.00 in0.0 mm 0.00 in0.0 mm
08:50 AM 21.6°F-5.8°C 19.9°F-6.7°C 93% 1.2 mph SW1.9 kmh SW 2.3 mph3.7 kmh 30.58 in1035.6 mb - 0.00 in0.0 mm 0.00 in0.0 mm
09:00 AM 21.4°F-5.9°C 19.7°F-6.8°C 93% 5.8 mph W9.3 kmh W 2.3 mph3.7 kmh 30.56 in1034.9 mb - 0.00 in0.0 mm 0.00 in0.0 mm
09:10 AM 21.2°F-6.0°C 19.5°F-6.9°C 93% 4.6 mph SW7.4 kmh SW 3.5 mph5.6 kmh 30.53 in1033.9 mb - 0.00 in0.0 mm 0.00 in0.0 mm
09:20 AM 21.1°F-6.1°C 19.4°F-7.0°C 93% 4.6 mph W7.4 kmh W 5.8 mph9.3 kmh 30.53 in1033.9 mb - 0.00 in0.0 mm 0.00 in0.0 mm
09:30 AM 21.3°F-5.9°C 19.6°F-6.9°C 93% 3.5 mph SW5.6 kmh SW 6.9 mph11.1 kmh 30.54 in1034.2 mb - 0.00 in0.0 mm 0.00 in0.0 mm
09:40 AM 21.3°F-5.9°C 19.6°F-6.9°C 93% 4.6 mph SE7.4 kmh SE 5.8 mph9.3 kmh 30.51 in1033.2 mb - 0.00 in0.0 mm 0.00 in0.0 mm
09:50 AM 21.4°F-5.9°C 19.7°F-6.8°C 93% 1.2 mph S1.9 kmh S 1.2 mph1.9 kmh 30.50 in1032.8 mb - 0.00 in0.0 mm 0.00 in0.0 mm
10:00 AM 21.7°F-5.7°C 20.0°F-6.7°C 93% 9.2 mph WNW14.8 kmh WNW 9.2 mph14.8 kmh 30.46 in1031.5 mb - 0.00 in0.0 mm 0.00 in0.0 mm
10:10 AM 21.9°F-5.6°C 20.2°F-6.6°C 93% 3.5 mph W5.6 kmh W 2.3 mph3.7 kmh 30.45 in1031.2 mb - 0.00 in0.0 mm 0.00 in0.0 mm
10:20 AM 21.8°F-5.7°C 20.1°F-6.6°C 93% 10.4 mph NNW16.7 kmh NNW 11.5 mph18.5 kmh 30.42 in1030.1 mb - 0.00 in0.0 mm 0.00 in0.0 mm
10:30 AM 21.7°F-5.7°C 19.9°F-6.7°C 93% 2.3 mph N3.7 kmh N 5.8 mph9.3 kmh 30.39 in1029.1 mb - 0.00 in0.0 mm 0.00 in0.0 mm
10:40 AM 21.3°F-5.9°C 19.6°F-6.9°C 93% 13.8 mph N22.2 kmh N 10.4 mph16.7 kmh 30.35 in1027.8 mb - 0.00 in0.0 mm 0.00 in0.0 mm
10:50 AM 21.4°F-5.9°C 19.7°F-6.8°C 93% 5.8 mph NNE9.3 kmh NNE 3.5 mph5.6 kmh 30.33 in1027.1 mb - 0.00 in0.0 mm 0.00 in0.0 mm
11:00 AM 21.6°F-5.8°C 19.9°F-6.7°C 93% 15.0 mph SE24.1 kmh SE 18.4 mph29.6 kmh 30.28 in1025.4 mb - 0.00 in0.0 mm 0.00 in0.0 mm
11:10 AM 21.8°F-5.7°C 20.1°F-6.6°C 93% 9.2 mph W14.8 kmh W 16.1 mph25.9 kmh 30.26 in1024.7 mb - 0.00 in0.0 mm 0.00 in0.0 mm
11:20 AM 22.2°F-5.4°C 20.5°F-6.4°C 93% 9.2 mph NNW14.8 kmh NNW 8.1 mph13.0 kmh 30.23 in1023.7 mb - 0.00 in0.0 mm 0.00 in0.0 mm
11:30 AM 22.7°F-5.2°C 21.0°F-6.1°C 93% 5.8 mph SW9.3 kmh SW 3.5 mph5.6 kmh 30.20 in1022.7 mb - 0.00 in0.0 mm 0.00 in0.0 mm
11:40 AM 23.1°F-4.9°C 21.4°F-5.9°C 93% 4.6 mph NNE7.4 kmh NNE 5.8 mph9.3 kmh 30.18 in1022.0 mb - 0.00 in0.0 mm 0.00 in0.0 mm
11:50 AM 23.3°F-4.8°C 21.6°F-5.8°C 93% 4.6 mph N7.4 kmh N 1.2 mph1.9 kmh 30.14 in1020.7 mb - 0.00 in0.0 mm 0.00 in0.0 mm
12:00 PM 23.5°F-4.7°C 21.8°F-5.7°C 93% 3.5 mph NW5.6 kmh NW 2.3 mph3.7 kmh 30.12 in1020.0 mb - 0.00 in0.0 mm 0.00 in0.0 mm
12:10 PM 23.7°F-4.6°C 22.0°F-5.6°C 93% 6.9 mph NNE11.1 kmh NNE 8.1 mph13.0 kmh 30.10 in1019.3 mb - 0.00 in0.0 mm 0.00 in0.0 mm
12:20 PM 23.8°F-4.6°C 22.1°F-5.5°C 93% 4.6 mph WSW7.4 kmh WSW 3.5 mph5.6 kmh 30.09 in1019.0 mb - 0.00 in0.0 mm 0.00 in0.0 mm
12:30 PM 23.8°F-4.6°C 22.1°F-5.5°C 93% 1.2 mph SW1.9 kmh SW 1.2 mph1.9 kmh 30.07 in1018.3 mb - 0.00 in0.0 mm 0.00 in0.0 mm
12:40 PM 23.7°F-4.6°C 22.0°F-5.6°C 93% 2.3 mph NNE3.7 kmh NNE 2.3 mph3.7 kmh 30.05 in1017.6 mb - 0.00 in0.0 mm 0.00 in0.0 mm
12:50 PM 23.5°F-4.7°C 21.8°F-5.7°C 93% 8.1 mph N13.0 kmh N 9.2 mph14.8 kmh 30.02 in1016.6 mb - 0.00 in0.0 mm 0.00 in0.0 mm
01:00 PM 23.5°F-4.7°C 21.8°F-5.7°C 93% 5.8 mph SSW9.3 kmh SSW 2.3 mph3.7 kmh 30.02 in1016.6 mb - 0.00 in0.0 mm 0.00 in0.0 mm
01:10 PM 23.5°F-4.7°C 21.8°F-5.7°C 93% 3.5 mph NW5.6 kmh NW 3.5 mph5.6 kmh 29.98 in1015.2 mb - 0.00 in0.0 mm 0.00 in0.0 mm
01:20 PM 23.6°F-4.7°C 21.9°F-5.6°C 93% 4.6 mph N7.4 kmh N 2.3 mph3.7 kmh 29.97 in1014.9 mb - 0.00 in0.0 mm 0.00 in0.0 mm
01:30 PM 23.9°F-4.5°C 22.2°F-5.4°C 93% 10.4 mph W16.7 kmh W 8.1 mph13.0 kmh 29.94 in1013.9 mb - 0.00 in0.0 mm 0.00 in0.0 mm
01:40 PM 24.2°F-4.3°C 22.5°F-5.3°C 93% 2.3 mph NW3.7 kmh NW 5.8 mph9.3 kmh 29.93 in1013.5 mb - 0.00 in0.0 mm 0.00 in0.0 mm
01:50 PM 24.4°F-4.2°C 22.7°F-5.2°C 93% 6.9 mph NW11.1 kmh NW 8.1 mph13.0 kmh 29.91 in1012.9 mb - 0.00 in0.0 mm 0.00 in0.0 mm
02:00 PM 24.6°F-4.1°C 22.9°F-5.1°C 93% 9.2 mph SE14.8 kmh SE 5.8 mph9.3 kmh 29.89 in1012.2 mb - 0.00 in0.0 mm 0.00 in0.0 mm
02:10 PM 24.9°F-3.9°C 23.2°F-4.9°C 93% 9.2 mph N14.8 kmh N 2.3 mph3.7 kmh 29.88 in1011.9 mb - 0.00 in0.0 mm 0.00 in0.0 mm
02:20 PM 25.2°F-3.8°C 23.7°F-4.6°C 94% 17.3 mph WNW27.8 kmh WNW 20.7 mph33.3 kmh 29.85 in1010.8 mb - 0.00 in0.0 mm 0.00 in0.0 mm
02:30 PM 25.5°F-3.6°C 24.0°F-4.4°C 94% 10.4 mph SE16.7 kmh SE 6.9 mph11.1 kmh 29.85 in1010.8 mb - 0.00 in0.0 mm 0.00 in0.0 mm
02:40 PM 25.8°F-3.4°C 24.3°F-4.3°C 94% 18.4 mph N29.6 kmh N 12.7 mph20.4 kmh 29.83 in1010.2 mb - 0.00 in0.0 mm 0.00 in0.0 mm
02:50 PM 26.1°F-3.3°C 24.6°F-4.1°C 94% 13.8 mph NNW22.2 kmh NNW 10.4 mph16.7 kmh 29.82 in1009.8 mb - 0.00 in0.0 mm 0.00 in0.0 mm
03:00 PM 26.4°F-3.1°C 24.9°F-3.9°C 94% 4.6 mph N7.4 kmh N 8.1 mph13.0 kmh 29.83 in1010.2 mb - 0.00 in0.0 mm 0.00 in0.0 mm
03:10 PM 26.7°F-2.9°C 25.2°F-3.8°C 94% 3.5 mph SE5.6 kmh SE 12.7 mph20.4 kmh 29.81 in1009.5 mb - 0.00 in0.0 mm 0.00 in0.0 mm
03:20 PM 26.9°F-2.8°C 25.4°F-3.7°C 94% 2.3 mph S3.7 kmh S 3.5 mph5.6 kmh 29.82 in1009.8 mb - 0.00 in0.0 mm 0.00 in0.0 mm
03:30 PM 27.2°F-2.7°C 25.7°F-3.5°C 94% 6.9 mph N11.1 kmh N 2.3 mph3.7 kmh 29.82 in1009.8 mb - 0.00 in0.0 mm 0.00 in0.0 mm
03:40 PM 27.3°F-2.6°C 25.8°F-3.4°C 94% 8.1 mph NW13.0 kmh NW 6.9 mph11.1 kmh 29.83 in1010.2 mb - 0.00 in0.0 mm 0.00 in0.0 mm
03:50 PM 27.3°F-2.6°C 25.8°F-3.4°C 94% 6.9 mph W11.1 kmh W 2.3 mph3.7 kmh 29.84 in1010.5 mb - 0.00 in0.0 mm 0.00 in0.0 mm
04:00 PM 27.4°F-2.6°C 25.9°F-3.4°C 94% 10.4 mph NW16.7 kmh NW 16.1 mph25.9 kmh 29.85 in1010.8 mb - 0.00 in0.0 mm 0.00 in0.0 mm
04:10 PM 27.4°F-2.6°C 25.9°F-3.4°C 94% 8.1 mph SW13.0 kmh SW 8.1 mph13.0 kmh 29.86 in1011.2 mb - 0.00 in0.0 mm 0.00 in0.0 mm
04:20 PM 27.5°F-2.5°C 26.0°F-3.3°C 94% 5.8 mph NW9.3 kmh NW 8.1 mph13.0 kmh 29.86 in1011.2 mb - 0.00 in0.0 mm 0.00 in0.0 mm
04:30 PM 27.7°F-2.4°C 26.2°F-3.2°C 94% 6.9 mph WSW11.1 kmh WSW 6.9 mph11.1 kmh 29.88 in1011.9 mb - 0.00 in0.0 mm 0.00 in0.0 mm
04:40 PM 27.8°F-2.3°C 26.3°F-3.2°C 94% 17.3 mph E27.8 kmh E 26.5 mph42.6 kmh 29.89 in1012.2 mb - 0.00 in0.0 mm 0.00 in0.0 mm
04:50 PM 27.7°F-2.4°C 26.2°F-3.2°C 94% 5.8 mph N9.3 kmh N 8.1 mph13.0 kmh 29.90 in1012.5 mb - 0.00 in0.0 mm 0.00 in0.0 mm
05:00 PM 27.7°F-2.4°C 26.2°F-3.2°C 94% 2.3 mph E3.7 kmh E 2.3 mph3.7 kmh 29.91 in1012.9 mb - 0.00 in0.0 mm 0.00 in0.0 mm
05:10 PM 27.6°F-2.4°C 26.1°F-3.3°C 94% 13.8 mph WNW22.2 kmh WNW 10.4 mph16.7 kmh 29.93 in1013.5 mb - 0.00 in0.0 mm 0.00 in0.0 mm
05:20 PM 27.3°F-2.6°C 25.8°F-3.4°C 94% 6.9 mph W11.1 kmh W 5.8 mph9.3 kmh 29.94 in1013.9 mb - 0.00 in0.0 mm 0.00 in0.0 mm
05:30 PM 26.8°F-2.9°C 25.3°F-3.7°C 94% 5.8 mph NW9.3 kmh NW 8.1 mph13.0 kmh 29.96 in1014.6 mb - 0.00 in0.0 mm 0.00 in0.0 mm
05:40 PM 26.2°F-3.2°C 24.7°F-4.1°C 94% 11.5 mph NNE18.5 kmh NNE 9.2 mph14.8 kmh 29.96 in1014.6 mb - 0.00 in0.0 mm 0.00 in0.0 mm
05:50 PM 25.6°F-3.6°C 24.1°F-4.4°C 94% 6.9 mph NW11.1 kmh NW 11.5 mph18.5 kmh 29.98 in1015.2 mb - 0.00 in0.0 mm 0.00 in0.0 mm
06:00 PM 25.2°F-3.8°C 23.7°F-4.6°C 94% 8.1 mph WSW13.0 kmh WSW 11.5 mph18.5 kmh 29.98 in1015.2 mb - 0.00 in0.0 mm 0.00 in0.0 mm
06:10 PM 25.1°F-3.8°C 23.6°F-4.7°C 94% 8.1 mph N13.0 kmh N 9.2 mph14.8 kmh 29.99 in1015.6 mb - 0.00 in0.0 mm 0.00 in0.0 mm
06:20 PM 24.9°F-3.9°C 23.2°F-4.9°C 93% 13.8 mph NW22.2 kmh NW 11.5 mph18.5 kmh 29.99 in1015.6 mb - 0.00 in0.0 mm 0.00 in0.0 mm
06:30 PM 24.7°F-4.1°C 23.0°F-5.0°C 93% 10.4 mph SW16.7 kmh SW 9.2 mph14.8 kmh 30.00 in1015.9 mb - 0.00 in0.0 mm 0.00 in0.0 mm
06:40 PM 24.6°F-4.1°C 22.9°F-5.1°C 93% 11.5 mph WSW18.5 kmh WSW 11.5 mph18.5 kmh 30.00 in1015.9 mb - 0.00 in0.0 mm 0.00 in0.0 mm
06:50 PM 24.5°F-4.2°C 22.8°F-5.1°C 93% 4.6 mph NW7.4 kmh NW 8.1 mph13.0 kmh 30.02 in1016.6 mb - 0.00 in0.0 mm 0.00 in0.0 mm
07:00 PM 24.5°F-4.2°C 22.8°F-5.1°C 93% 6.9 mph NW11.1 kmh NW 6.9 mph11.1 kmh 30.02 in1016.6 mb - 0.00 in0.0 mm 0.00 in0.0 mm
07:10 PM 24.5°F-4.2°C 22.8°F-5.1°C 93% 3.5 mph NW5.6 kmh NW 10.4 mph16.7 kmh 30.03 in1016.9 mb - 0.00 in0.0 mm 0.00 in0.0 mm
07:20 PM 24.5°F-4.2°C 22.8°F-5.1°C 93% 6.9 mph SW11.1 kmh SW 8.1 mph13.0 kmh 30.04 in1017.3 mb - 0.00 in0.0 mm 0.00 in0.0 mm
07:30 PM 24.5°F-4.2°C 22.8°F-5.1°C 93% 4.6 mph SW7.4 kmh SW 5.8 mph9.3 kmh 30.05 in1017.6 mb - 0.00 in0.0 mm 0.00 in0.0 mm
07:40 PM 24.3°F-4.3°C 22.6°F-5.2°C 93% 9.2 mph WSW14.8 kmh WSW 11.5 mph18.5 kmh 30.06 in1017.9 mb - 0.00 in0.0 mm 0.00 in0.0 mm
07:50 PM 24.1°F-4.4°C 22.4°F-5.3°C 93% 10.4 mph NW16.7 kmh NW 9.2 mph14.8 kmh 30.07 in1018.3 mb - 0.00 in0.0 mm 0.00 in0.0 mm
08:00 PM 24.0°F-4.4°C 22.2°F-5.4°C 93% 13.8 mph WSW22.2 kmh WSW 12.7 mph20.4 kmh 30.08 in1018.6 mb - 0.00 in0.0 mm 0.00 in0.0 mm
08:10 PM 23.5°F-4.7°C 21.8°F-5.7°C 93% 13.8 mph NE22.2 kmh NE 16.1 mph25.9 kmh 30.09 in1019.0 mb - 0.00 in0.0 mm 0.00 in0.0 mm
08:20 PM 22.9°F-5.1°C 21.2°F-6.0°C 93% 13.8 mph NW22.2 kmh NW 16.1 mph25.9 kmh 30.10 in1019.3 mb - 0.00 in0.0 mm 0.00 in0.0 mm
08:30 PM 22.5°F-5.3°C 20.8°F-6.2°C 93% 11.5 mph SW18.5 kmh SW 9.2 mph14.8 kmh 30.11 in1019.6 mb - 0.00 in0.0 mm 0.00 in0.0 mm
08:40 PM 22.2°F-5.4°C 20.5°F-6.4°C 93% 6.9 mph WSW11.1 kmh WSW 8.1 mph13.0 kmh 30.12 in1020.0 mb - 0.00 in0.0 mm 0.00 in0.0 mm
08:50 PM 21.9°F-5.6°C 20.2°F-6.6°C 93% 15.0 mph NW24.1 kmh NW 12.7 mph20.4 kmh 30.13 in1020.3 mb - 0.00 in0.0 mm 0.00 in0.0 mm
09:00 PM 21.6°F-5.8°C 19.9°F-6.7°C 93% 13.8 mph ENE22.2 kmh ENE 13.8 mph22.2 kmh 30.14 in1020.7 mb - 0.00 in0.0 mm 0.00 in0.0 mm
09:10 PM 21.4°F-5.9°C 19.7°F-6.8°C 93% 9.2 mph SW14.8 kmh SW 8.1 mph13.0 kmh 30.15 in1021.0 mb - 0.00 in0.0 mm 0.00 in0.0 mm
09:20 PM 21.2°F-6.0°C 19.5°F-6.9°C 93% 5.8 mph WSW9.3 kmh WSW 5.8 mph9.3 kmh 30.17 in1021.7 mb - 0.00 in0.0 mm 0.00 in0.0 mm
09:30 PM 21.3°F-5.9°C 19.6°F-6.9°C 93% 12.7 mph W20.4 kmh W 10.4 mph16.7 kmh 30.18 in1022.0 mb - 0.00 in0.0 mm 0.00 in0.0 mm
09:40 PM 21.3°F-5.9°C 19.6°F-6.9°C 93% 10.4 mph WSW16.7 kmh WSW 9.2 mph14.8 kmh 30.19 in1022.4 mb - 0.00 in0.0 mm 0.00 in0.0 mm
09:50 PM 21.4°F-5.9°C 19.7°F-6.8°C 93% 4.6 mph WSW7.4 kmh WSW 6.9 mph11.1 kmh 30.21 in1023.0 mb - 0.00 in0.0 mm 0.00 in0.0 mm
10:00 PM 21.4°F-5.9°C 19.7°F-6.8°C 93% 13.8 mph W22.2 kmh W 13.8 mph22.2 kmh 30.20 in1022.7 mb - 0.00 in0.0 mm 0.00 in0.0 mm
10:10 PM 21.4°F-5.9°C 19.7°F-6.8°C 93% 4.6 mph WSW7.4 kmh WSW 2.3 mph3.7 kmh 30.21 in1023.0 mb - 0.00 in0.0 mm 0.00 in0.0 mm
10:20 PM 21.3°F-5.9°C 19.6°F-6.9°C 93% 10.4 mph SW16.7 kmh SW 8.1 mph13.0 kmh 30.23 in1023.7 mb - 0.00 in0.0 mm 0.00 in0.0 mm
10:30 PM 21.2°F-6.0°C 19.5°F-6.9°C 93% 9.2 mph W14.8 kmh W 9.2 mph14.8 kmh 30.23 in1023.7 mb - 0.00 in0.0 mm 0.00 in0.0 mm
10:40 PM 21.3°F-5.9°C 19.6°F-6.9°C 93% 8.1 mph WSW13.0 kmh WSW 11.5 mph18.5 kmh 30.25 in1024.4 mb - 0.00 in0.0 mm 0.00 in0.0 mm
10:50 PM 21.3°F-5.9°C 19.6°F-6.9°C 93% 13.8 mph NW22.2 kmh NW 11.5 mph18.5 kmh 30.25 in1024.4 mb - 0.00 in0.0 mm 0.00 in0.0 mm
11:00 PM 21.3°F-5.9°C 19.6°F-6.9°C 93% 10.4 mph SW16.7 kmh SW 8.1 mph13.0 kmh 30.26 in1024.7 mb - 0.00 in0.0 mm 0.00 in0.0 mm
11:10 PM 21.4°F-5.9°C 19.7°F-6.8°C 93% 11.5 mph W18.5 kmh W 9.2 mph14.8 kmh 30.26 in1024.7 mb - 0.00 in0.0 mm 0.00 in0.0 mm
11:20 PM 21.4°F-5.9°C 19.7°F-6.8°C 93% 6.9 mph N11.1 kmh N 9.2 mph14.8 kmh 30.27 in1025.1 mb - 0.00 in0.0 mm 0.00 in0.0 mm
11:30 PM 21.6°F-5.8°C 19.9°F-6.7°C 93% 8.1 mph W13.0 kmh W 5.8 mph9.3 kmh 30.26 in1024.7 mb - 0.00 in0.0 mm 0.00 in0.0 mm
11:40 PM 21.5°F-5.8°C 19.8°F-6.8°C 93% 9.2 mph WSW14.8 kmh WSW 9.2 mph14.8 kmh 30.26 in1024.7 mb - 0.00 in0.0 mm 0.00 in0.0 mm
11:50 PM 21.7°F-5.7°C 20.0°F-6.7°C 93% 16.1 mph WSW25.9 kmh WSW 13.8 mph22.2 kmh 30.26 in1024.7 mb - 0.00 in0.0 mm 0.00 in0.0 mm